createdAt,value
2023-05-05T00:00:10.583Z,0.77
2023-05-05T00:05:58.162Z,1.42
2023-05-05T00:11:47.355Z,0.98
2023-05-05T00:17:34.151Z,1.00
2023-05-05T00:23:21.077Z,0.80
2023-05-05T00:29:09.849Z,0.95
2023-05-05T00:34:57.211Z,0.98
2023-05-05T00:40:43.814Z,0.70
2023-05-05T00:46:34.017Z,1.33
2023-05-05T00:52:21.152Z,1.13
2023-05-05T00:58:10.743Z,1.05
2023-05-05T01:03:57.673Z,1.70
2023-05-05T01:10:11.408Z,0.90
2023-05-05T01:16:19.828Z,1.08
2023-05-05T01:22:11.963Z,1.10
2023-05-05T01:28:17.215Z,1.20
2023-05-05T01:34:08.615Z,1.27
2023-05-05T01:40:00.862Z,1.35
2023-05-05T01:45:49.143Z,1.23
2023-05-05T01:51:37.738Z,1.20
2023-05-05T01:57:26.530Z,1.08
2023-05-05T02:03:15.004Z,1.83
2023-05-05T02:09:03.355Z,1.20
2023-05-05T02:14:52.298Z,1.40
2023-05-05T02:20:40.780Z,1.50
2023-05-05T02:26:30.284Z,1.60
2023-05-05T02:32:31.807Z,1.48
2023-05-05T02:44:12.698Z,1.40
2023-05-05T02:50:00.003Z,1.20
2023-05-05T02:56:13.094Z,1.30
2023-05-05T03:02:29.322Z,1.35
2023-05-05T03:08:35.253Z,1.23
2023-05-05T03:14:22.607Z,2.03
2023-05-05T03:20:12.367Z,2.45
2023-05-05T03:26:01.967Z,13.47
2023-05-05T03:31:53.475Z,4.15
2023-05-05T03:37:40.648Z,3.58
2023-05-05T03:43:27.897Z,3.85
2023-05-05T03:49:15.020Z,4.38
2023-05-05T03:55:03.445Z,4.57
2023-05-05T04:00:51.393Z,4.72
2023-05-05T04:06:40.246Z,4.03
2023-05-05T04:12:30.100Z,5.40
2023-05-05T04:18:17.695Z,5.47
2023-05-05T04:24:04.833Z,5.45
2023-05-05T04:29:52.217Z,5.53
2023-05-05T04:35:38.992Z,5.93
2023-05-05T04:41:26.788Z,4.55
2023-05-05T04:47:14.869Z,5.00
2023-05-05T04:53:04.181Z,4.32
2023-05-05T04:58:51.400Z,4.20
2023-05-05T05:04:38.146Z,4.45
2023-05-05T05:10:25.051Z,4.10
2023-05-05T05:16:13.267Z,3.72
2023-05-05T05:22:00.311Z,3.35
2023-05-05T05:27:55.333Z,3.53
2023-05-05T05:33:56.221Z,3.28
2023-05-05T05:39:44.069Z,2.83
2023-05-05T05:45:32.075Z,2.97
2023-05-05T05:51:21.264Z,2.72
2023-05-05T05:57:09.385Z,2.88
2023-05-05T06:02:59.294Z,2.88
2023-05-05T06:08:50.086Z,3.22
2023-05-05T06:14:37.396Z,3.10
2023-05-05T06:20:25.088Z,3.30
2023-05-05T06:26:14.794Z,3.10
2023-05-05T06:32:01.920Z,3.30
2023-05-05T06:37:51.417Z,3.47
2023-05-05T06:43:38.502Z,3.38
2023-05-05T06:49:31.288Z,2.95
2023-05-05T06:55:18.214Z,2.80
2023-05-05T07:01:06.106Z,2.55
2023-05-05T07:07:03.340Z,2.40
2023-05-05T07:12:51.908Z,2.78
2023-05-05T07:18:43.934Z,2.53
2023-05-05T07:25:07.217Z,1.77
2023-05-05T07:30:57.587Z,1.45
2023-05-05T07:36:44.737Z,1.63
2023-05-05T07:42:34.034Z,1.40
2023-05-05T07:48:22.453Z,1.05
2023-05-05T07:54:33.147Z,1.27
2023-05-05T08:00:29.492Z,1.13
2023-05-05T08:06:25.316Z,1.42
2023-05-05T08:12:18.169Z,1.15
2023-05-05T08:18:20.207Z,1.40
2023-05-05T08:24:09.509Z,1.13
2023-05-05T08:29:58.391Z,0.82
2023-05-05T08:35:46.019Z,1.00
2023-05-05T08:41:36.343Z,0.90
2023-05-05T08:47:26.787Z,0.98
2023-05-05T08:53:30.326Z,0.90
2023-05-05T08:59:23.653Z,1.38
2023-05-05T09:05:12.292Z,1.40
2023-05-05T09:11:02.316Z,1.00
2023-05-05T09:16:49.876Z,1.20
2023-05-05T09:22:38.894Z,1.20
2023-05-05T09:28:26.344Z,1.25
2023-05-05T09:34:16.976Z,1.23
2023-05-05T09:40:09.236Z,1.15
2023-05-05T09:46:10.311Z,0.95
2023-05-05T09:52:11.620Z,1.30
2023-05-05T09:58:19.504Z,0.80
2023-05-05T10:04:07.721Z,0.88
2023-05-05T10:09:56.767Z,0.90
2023-05-05T10:15:46.036Z,1.20
2023-05-05T10:22:03.512Z,1.00
2023-05-05T10:27:53.063Z,1.40
2023-05-05T10:33:54.148Z,1.38
2023-05-05T10:39:41.503Z,1.67
2023-05-05T10:45:29.148Z,1.25
2023-05-05T10:51:39.398Z,1.20
2023-05-05T10:57:30.921Z,1.20
2023-05-05T11:03:20.702Z,1.15
2023-05-05T11:09:32.003Z,1.00
2023-05-05T11:15:31.310Z,0.60
2023-05-05T11:21:21.838Z,1.35
2023-05-05T11:27:10.898Z,0.70
2023-05-05T11:33:29.946Z,1.02
2023-05-05T11:39:20.116Z,0.82
2023-05-05T11:45:24.463Z,1.05
2023-05-05T11:51:13.582Z,0.90
2023-05-05T11:57:37.858Z,1.20
2023-05-05T12:09:21.260Z,0.82
2023-05-05T12:15:52.818Z,0.90
2023-05-05T14:01:02.384Z,1.00
2023-05-05T14:36:38.335Z,1.15
2023-05-05T14:42:36.020Z,1.10
2023-05-05T14:48:24.424Z,1.00
2023-05-05T14:54:24.024Z,1.08
2023-05-05T15:00:12.079Z,1.55
2023-05-05T15:12:04.806Z,1.00
2023-05-05T15:17:51.864Z,1.13
2023-05-05T15:23:40.164Z,1.20
2023-05-05T15:29:29.711Z,1.33
2023-05-05T15:35:16.744Z,1.50
2023-05-05T15:41:07.037Z,1.25
2023-05-05T15:46:53.720Z,1.35
2023-05-05T15:52:40.450Z,1.15
2023-05-05T15:58:27.145Z,1.85
2023-05-05T16:04:14.163Z,1.30
2023-05-05T16:10:02.510Z,1.55
2023-05-05T16:15:52.235Z,1.20
2023-05-05T16:21:39.433Z,1.42
2023-05-05T16:27:27.348Z,1.02
2023-05-05T16:33:15.031Z,1.73
2023-05-05T16:39:04.186Z,1.38
2023-05-05T16:44:52.033Z,1.30
2023-05-05T16:50:43.717Z,1.52
2023-05-05T16:56:31.535Z,1.80
2023-05-05T17:02:23.788Z,1.13
2023-05-05T17:08:20.499Z,1.42
2023-05-05T17:14:09.987Z,1.30
2023-05-05T17:20:08.484Z,1.38
2023-05-05T17:25:58.938Z,1.65
2023-05-05T17:31:47.179Z,2.42
2023-05-05T17:38:29.011Z,1.98
2023-05-05T17:44:33.492Z,1.53
2023-05-05T17:50:20.456Z,1.33
2023-05-05T17:56:09.098Z,1.80
2023-05-05T18:02:01.839Z,1.73
2023-05-05T18:07:49.752Z,1.53
2023-05-05T18:13:40.402Z,2.03
2023-05-05T18:19:30.448Z,2.15
2023-05-05T18:25:17.425Z,1.70
2023-05-05T18:31:08.760Z,2.42
2023-05-05T18:36:57.195Z,1.30
2023-05-05T18:42:44.138Z,1.85
2023-05-05T18:48:31.045Z,2.75
2023-05-05T18:54:18.023Z,3.13
2023-05-05T19:00:12.451Z,2.83
2023-05-05T19:06:03.098Z,4.88
2023-05-05T19:11:53.797Z,3.33
2023-05-05T19:17:40.776Z,5.72
2023-05-05T19:23:30.654Z,3.10
2023-05-05T19:29:17.724Z,3.70
2023-05-05T19:35:09.134Z,3.03
2023-05-05T19:40:57.384Z,2.75
2023-05-05T19:46:44.717Z,5.95
2023-05-05T19:52:39.066Z,2.25
2023-05-05T19:58:29.867Z,3.78
2023-05-05T20:04:20.319Z,2.63
2023-05-05T20:10:25.179Z,1.73
2023-05-05T20:16:14.824Z,1.67
2023-05-05T20:22:04.288Z,2.05
2023-05-05T20:27:51.673Z,2.10
2023-05-05T20:33:39.901Z,1.92
2023-05-05T20:39:45.817Z,2.13
2023-05-05T20:45:37.586Z,2.33
2023-05-05T20:58:58.339Z,1.83
2023-05-05T21:04:45.778Z,2.03
2023-05-05T21:10:35.749Z,1.90
2023-05-05T21:16:22.581Z,1.65
2023-05-05T21:22:11.740Z,2.10
2023-05-05T21:27:58.951Z,1.63
2023-05-05T21:33:46.440Z,1.83
2023-05-05T21:39:33.860Z,1.55
2023-05-05T21:45:22.033Z,1.98
2023-05-05T21:51:09.162Z,1.50
2023-05-05T21:56:56.386Z,2.53
2023-05-05T22:02:44.686Z,1.55
2023-05-05T22:08:35.259Z,1.48
2023-05-05T22:14:22.219Z,2.20
2023-05-05T22:20:10.921Z,1.33
2023-05-05T22:25:57.996Z,2.00
2023-05-05T22:31:44.758Z,1.58
2023-05-05T22:37:33.981Z,2.00
2023-05-05T22:43:21.276Z,1.65
2023-05-05T22:49:09.315Z,1.27
2023-05-05T22:54:59.102Z,1.40
2023-05-05T23:00:46.872Z,5.55
2023-05-05T23:06:35.156Z,2.15
2023-05-05T23:12:21.966Z,1.95
2023-05-05T23:18:13.803Z,2.00
2023-05-05T23:24:02.719Z,2.20
2023-05-05T23:29:51.931Z,1.80
2023-05-05T23:35:43.160Z,1.70
2023-05-05T23:41:30.898Z,1.77
2023-05-05T23:47:19.124Z,1.67
2023-05-05T23:53:06.240Z,2.75
2023-05-05T23:58:53.753Z,1.35
